Terminal Aerodrome Forecast
Issued by NWS

Home | Current Version | Previous Version | Graphics & Text | Print | Product List | Glossary On
Versions: 1 2 3 4 5 6 7 8 9 10 11 12 13 14 15 16 17 18 19
000
FTUS43 KGRB 251138
TAFATW
TAF
KATW 251138Z 2512/2612 14008KT P6SM SCT035 BKN080
      TEMPO 2512/2515 BKN035
     FM251500 16012G18KT P6SM BKN015 OVC040
      TEMPO 2516/2520 4SM -SHRA BR
     FM252000 19015G22KT 4SM SHRA BKN015 OVC025
      TEMPO 2520/2524 2SM TSRA BR BKN007 OVC015CB
     FM260100 24012G19KT P6SM SCT015 BKN035=

USA.gov is the U.S. government's official web portal to all federal, state and local government web resources and services.